createdAt,value
2018-05-01T00:01:12.609Z,13.84
2018-05-01T00:03:40.024Z,13.81
2018-05-01T00:06:07.436Z,13.82
2018-05-01T00:08:34.849Z,13.84
2018-05-01T00:11:02.249Z,13.85
2018-05-01T00:13:29.664Z,13.90
2018-05-01T00:15:57.069Z,13.91
2018-05-01T00:18:24.486Z,13.93
2018-05-01T00:20:51.880Z,13.96
2018-05-01T00:23:19.292Z,14.00
2018-05-01T00:25:46.713Z,14.04
2018-05-01T00:28:14.129Z,14.09
2018-05-01T00:30:41.524Z,14.15
2018-05-01T00:33:08.941Z,14.17
2018-05-01T00:35:36.349Z,14.19
2018-05-01T00:38:03.769Z,14.16
2018-05-01T00:40:31.185Z,14.17
2018-05-01T00:42:58.603Z,14.17
2018-05-01T00:45:26.005Z,14.19
2018-05-01T00:47:53.428Z,14.20
2018-05-01T00:50:20.848Z,14.21
2018-05-01T00:52:48.248Z,14.22
2018-05-01T00:55:15.656Z,14.21
2018-05-01T00:57:43.086Z,14.18
2018-05-01T01:00:10.468Z,14.19
2018-05-01T01:02:37.872Z,14.19
2018-05-01T01:05:05.290Z,14.18
2018-05-01T01:07:32.689Z,14.19
2018-05-01T01:10:00.097Z,14.17
2018-05-01T01:12:27.502Z,14.16
2018-05-01T01:14:54.914Z,14.13
2018-05-01T01:17:22.318Z,14.11
2018-05-01T01:19:49.733Z,14.08
2018-05-01T01:22:17.141Z,14.05
2018-05-01T01:24:44.552Z,14.04
2018-05-01T01:27:11.952Z,14.00
2018-05-01T01:29:39.361Z,13.92
2018-05-01T01:32:14.711Z,13.76
2018-05-01T01:34:42.129Z,13.64
2018-05-01T01:37:08.998Z,13.55
2018-05-01T01:39:35.869Z,13.41
2018-05-01T01:42:02.741Z,13.36
2018-05-01T01:44:29.607Z,13.32
2018-05-01T01:46:56.505Z,13.23
2018-05-01T01:49:23.451Z,13.16
2018-05-01T01:51:50.241Z,13.13
2018-05-01T01:54:17.107Z,13.08
2018-05-01T01:56:43.973Z,13.04
2018-05-01T01:59:10.844Z,12.99
2018-05-01T02:01:37.708Z,12.97
2018-05-01T02:04:04.595Z,12.92
2018-05-01T02:06:31.464Z,12.89
2018-05-01T02:08:58.322Z,12.85
2018-05-01T02:11:25.188Z,12.89
2018-05-01T02:13:52.049Z,12.90
2018-05-01T02:16:18.925Z,12.90
2018-05-01T02:18:45.794Z,12.84
2018-05-01T02:21:12.664Z,12.79
2018-05-01T02:23:39.520Z,12.78
2018-05-01T02:26:06.387Z,12.78
2018-05-01T02:28:33.260Z,12.74
2018-05-01T02:31:00.129Z,12.72
2018-05-01T02:33:26.989Z,12.69
2018-05-01T02:35:53.889Z,12.59
2018-05-01T02:38:20.762Z,12.58
2018-05-01T02:40:47.628Z,12.57
2018-05-01T02:43:14.497Z,12.55
2018-05-01T02:45:41.366Z,12.53
2018-05-01T02:48:08.229Z,12.54
2018-05-01T02:50:35.088Z,12.53
2018-05-01T02:53:01.955Z,12.49
2018-05-01T02:55:28.818Z,12.47
2018-05-01T02:57:55.681Z,12.44
2018-05-01T03:00:22.540Z,12.40
2018-05-01T03:02:49.416Z,12.33
2018-05-01T03:05:16.276Z,12.31
2018-05-01T03:07:43.147Z,12.30
2018-05-01T03:10:10.023Z,12.29
2018-05-01T03:12:36.880Z,12.27
2018-05-01T03:15:03.745Z,12.21
2018-05-01T03:17:30.618Z,12.18
2018-05-01T03:19:57.479Z,12.14
2018-05-01T03:22:24.352Z,12.09
2018-05-01T03:24:51.216Z,12.09
2018-05-01T03:27:18.080Z,12.08
2018-05-01T03:29:44.941Z,12.09
2018-05-01T03:32:11.815Z,12.09
2018-05-01T03:34:38.682Z,12.05
2018-05-01T03:37:05.560Z,12.04
2018-05-01T03:39:32.420Z,12.01
2018-05-01T03:41:59.280Z,12.00
2018-05-01T03:44:26.154Z,11.99
2018-05-01T03:46:53.014Z,12.03
2018-05-01T03:49:19.885Z,12.04
2018-05-01T03:51:46.754Z,12.04
2018-05-01T03:54:13.621Z,11.99
2018-05-01T03:56:40.480Z,11.90
2018-05-01T03:59:07.378Z,11.84
2018-05-01T04:01:34.236Z,11.77
2018-05-01T04:04:01.106Z,11.68
2018-05-01T04:06:27.964Z,11.61
2018-05-01T04:08:54.836Z,11.52
2018-05-01T04:11:22.504Z,11.47
2018-05-01T04:13:49.384Z,11.33
2018-05-01T04:16:16.256Z,11.24
2018-05-01T04:18:43.132Z,11.21
2018-05-01T04:21:09.994Z,11.17
2018-05-01T04:23:36.860Z,11.11
2018-05-01T04:26:03.728Z,11.11
2018-05-01T04:28:30.596Z,11.11
2018-05-01T04:30:57.471Z,11.03
2018-05-01T04:33:24.336Z,11.05
2018-05-01T04:35:51.204Z,11.02
2018-05-01T04:38:18.065Z,11.00
2018-05-01T04:40:44.934Z,11.00
2018-05-01T04:43:11.801Z,11.02
2018-05-01T04:45:38.693Z,10.97
2018-05-01T04:48:05.564Z,10.90
2018-05-01T04:50:32.440Z,10.83
2018-05-01T04:52:59.300Z,10.82
2018-05-01T04:55:26.179Z,10.83
2018-05-01T04:57:53.036Z,10.83
2018-05-01T05:00:19.917Z,10.82
2018-05-01T05:02:46.786Z,10.82
2018-05-01T05:05:13.656Z,10.82
2018-05-01T05:07:40.520Z,10.83
2018-05-01T05:10:07.393Z,10.80
2018-05-01T05:12:34.261Z,10.73
2018-05-01T05:15:01.137Z,10.63
2018-05-01T05:17:28.000Z,10.59
2018-05-01T05:19:54.877Z,10.55
2018-05-01T05:22:21.744Z,10.50
2018-05-01T05:24:48.604Z,10.47
2018-05-01T05:27:15.476Z,10.41
2018-05-01T05:29:42.344Z,10.38
2018-05-01T05:32:09.220Z,10.34
2018-05-01T05:34:36.121Z,10.36
2018-05-01T05:37:02.965Z,10.36
2018-05-01T05:39:29.837Z,10.31
2018-05-01T05:41:56.701Z,10.33
2018-05-01T05:44:23.576Z,10.35
2018-05-01T05:46:50.453Z,10.34
2018-05-01T05:49:17.316Z,10.30
2018-05-01T05:51:44.191Z,10.23
2018-05-01T05:54:11.072Z,10.23
2018-05-01T05:56:37.940Z,10.12
2018-05-01T05:59:04.805Z,10.09
2018-05-01T06:01:31.716Z,10.03
2018-05-01T06:03:58.572Z,10.01
2018-05-01T06:06:25.452Z,10.01
2018-05-01T06:08:52.313Z,9.99
2018-05-01T06:11:19.180Z,9.97
2018-05-01T06:13:46.127Z,9.91
2018-05-01T06:16:12.917Z,9.87
2018-05-01T06:18:39.776Z,9.83
2018-05-01T06:21:06.649Z,9.80
2018-05-01T06:23:33.508Z,9.76
2018-05-01T06:26:00.376Z,9.75
2018-05-01T06:28:27.239Z,9.71
2018-05-01T06:30:54.117Z,9.67
2018-05-01T06:33:20.980Z,9.65
2018-05-01T06:35:47.854Z,9.65
2018-05-01T06:38:14.712Z,9.65
2018-05-01T06:40:41.581Z,9.64
2018-05-01T06:43:08.445Z,9.60
2018-05-01T06:45:35.309Z,9.58
2018-05-01T06:48:02.217Z,9.54
2018-05-01T06:50:29.089Z,9.54
2018-05-01T06:52:55.960Z,9.50
2018-05-01T06:55:22.831Z,9.46
2018-05-01T06:57:49.720Z,9.42
2018-05-01T07:00:16.558Z,9.38
2018-05-01T07:02:43.427Z,9.34
2018-05-01T07:05:10.295Z,9.34
2018-05-01T07:07:37.161Z,9.26
2018-05-01T07:10:04.029Z,9.20
2018-05-01T07:12:30.915Z,9.17
2018-05-01T07:14:57.780Z,9.15
2018-05-01T07:17:24.648Z,9.11
2018-05-01T07:19:51.508Z,9.14
2018-05-01T07:22:18.377Z,9.10
2018-05-01T07:24:45.244Z,9.04
2018-05-01T07:27:12.113Z,9.02
2018-05-01T07:29:38.981Z,9.03
2018-05-01T07:32:05.853Z,9.02
2018-05-01T07:34:32.708Z,8.95
2018-05-01T07:36:59.596Z,8.93
2018-05-01T07:39:26.457Z,8.83
2018-05-01T07:41:53.326Z,8.81
2018-05-01T07:44:20.188Z,8.78
2018-05-01T07:46:47.062Z,8.77
2018-05-01T07:49:13.919Z,8.76
2018-05-01T07:51:40.797Z,8.77
2018-05-01T07:54:07.653Z,8.72
2018-05-01T07:56:34.515Z,8.72
2018-05-01T07:59:01.386Z,8.72
2018-05-01T08:01:28.258Z,8.74
2018-05-01T08:03:55.124Z,8.75
2018-05-01T08:06:21.993Z,8.76
2018-05-01T08:08:48.857Z,8.79
2018-05-01T08:11:15.715Z,8.77
2018-05-01T08:13:42.588Z,8.78
2018-05-01T08:16:09.457Z,8.80
2018-05-01T08:18:36.376Z,8.79
2018-05-01T08:21:03.191Z,8.78
2018-05-01T08:23:30.083Z,8.78
2018-05-01T08:25:56.950Z,8.78
2018-05-01T08:28:23.826Z,8.80
2018-05-01T08:30:50.688Z,8.81
2018-05-01T08:33:17.560Z,8.83
2018-05-01T08:35:44.423Z,8.86
2018-05-01T08:38:11.296Z,8.84
2018-05-01T08:40:38.152Z,8.84
2018-05-01T08:43:05.021Z,8.82
2018-05-01T08:45:31.885Z,8.78
2018-05-01T08:47:58.761Z,8.76
2018-05-01T08:50:25.627Z,8.80
2018-05-01T08:52:52.497Z,8.78
2018-05-01T08:55:19.368Z,8.79
2018-05-01T08:57:46.241Z,8.79
2018-05-01T09:00:13.104Z,8.79
2018-05-01T09:02:39.972Z,8.80
2018-05-01T09:05:06.841Z,8.85
2018-05-01T09:07:33.708Z,8.82
2018-05-01T09:10:00.572Z,8.84
2018-05-01T09:12:27.466Z,8.85
2018-05-01T09:14:54.324Z,8.86
2018-05-01T09:17:21.203Z,8.89
2018-05-01T09:19:48.068Z,8.93
2018-05-01T09:22:14.938Z,8.92
2018-05-01T09:24:41.796Z,8.92
2018-05-01T09:27:08.671Z,8.89
2018-05-01T09:29:35.536Z,8.89
2018-05-01T09:32:02.408Z,8.83
2018-05-01T09:34:29.265Z,8.80
2018-05-01T09:36:56.187Z,8.79
2018-05-01T09:39:23.042Z,8.78
2018-05-01T09:41:49.957Z,8.80
2018-05-01T09:44:16.779Z,8.83
2018-05-01T09:46:43.651Z,8.84
2018-05-01T09:49:10.521Z,8.82
2018-05-01T09:51:37.381Z,8.85
2018-05-01T09:54:04.800Z,8.85
2018-05-01T09:56:32.201Z,8.86
2018-05-01T09:58:59.614Z,8.88
2018-05-01T10:01:27.012Z,8.90
2018-05-01T10:03:54.425Z,8.88
2018-05-01T10:06:21.824Z,8.91
2018-05-01T10:08:49.246Z,8.90
2018-05-01T10:11:16.644Z,8.86
2018-05-01T10:13:44.057Z,8.89
2018-05-01T10:16:11.451Z,8.92
2018-05-01T10:18:38.869Z,8.92
2018-05-01T10:21:06.268Z,8.94
2018-05-01T10:23:33.681Z,8.98
2018-05-01T10:26:01.081Z,8.97
2018-05-01T10:28:28.492Z,8.98
2018-05-01T10:30:55.892Z,9.02
2018-05-01T10:33:23.301Z,9.05
2018-05-01T10:35:50.705Z,9.09
2018-05-01T10:38:18.112Z,9.10
2018-05-01T10:40:45.512Z,9.16
2018-05-01T10:43:12.921Z,9.18
2018-05-01T10:45:40.347Z,9.20
2018-05-01T10:48:07.742Z,9.26
2018-05-01T10:50:35.146Z,9.31
2018-05-01T10:53:02.558Z,9.36
2018-05-01T10:55:29.961Z,9.37
2018-05-01T10:57:57.377Z,9.34
2018-05-01T11:00:24.772Z,9.33
2018-05-01T11:02:52.210Z,9.35
2018-05-01T11:05:19.608Z,9.34
2018-05-01T11:07:47.020Z,9.37
2018-05-01T11:10:14.423Z,9.41
2018-05-01T11:12:41.817Z,9.44
2018-05-01T11:15:09.229Z,9.51
2018-05-01T11:17:36.632Z,9.56
2018-05-01T11:20:04.037Z,9.62
2018-05-01T11:22:31.435Z,9.69
2018-05-01T11:24:58.836Z,9.73
2018-05-01T11:27:26.244Z,9.76
2018-05-01T11:29:53.656Z,9.81
2018-05-01T11:32:21.067Z,9.88
2018-05-01T11:34:48.473Z,9.96
2018-05-01T11:37:15.882Z,9.98
2018-05-01T11:39:43.298Z,10.01
2018-05-01T11:42:10.700Z,10.03
2018-05-01T11:44:38.122Z,10.07
2018-05-01T11:47:05.519Z,10.06
2018-05-01T11:49:32.941Z,10.08
2018-05-01T11:52:00.345Z,10.08
2018-05-01T11:54:27.760Z,10.06
2018-05-01T11:56:55.167Z,10.08
2018-05-01T11:59:22.581Z,10.10
2018-05-01T12:01:49.993Z,10.10
2018-05-01T12:04:17.404Z,10.12
2018-05-01T12:06:44.816Z,10.13
2018-05-01T12:09:12.229Z,10.19
2018-05-01T12:11:39.628Z,10.18
2018-05-01T12:14:07.044Z,10.25
2018-05-01T12:16:34.452Z,10.29
2018-05-01T12:19:01.873Z,10.25
2018-05-01T12:21:29.281Z,10.24
2018-05-01T12:23:56.709Z,10.21
2018-05-01T12:26:24.107Z,10.19
2018-05-01T12:28:51.517Z,10.21
2018-05-01T12:31:18.928Z,10.23
2018-05-01T12:33:46.348Z,10.22
2018-05-01T12:36:13.757Z,10.23
2018-05-01T12:38:41.173Z,10.25
2018-05-01T12:41:08.584Z,10.26
2018-05-01T12:43:36.037Z,10.29
2018-05-01T12:46:03.440Z,10.29
2018-05-01T12:48:30.861Z,10.30
2018-05-01T12:50:58.265Z,10.32
2018-05-01T12:53:25.679Z,10.28
2018-05-01T12:55:53.092Z,10.27
2018-05-01T12:58:20.495Z,10.26
2018-05-01T13:00:47.911Z,10.22
2018-05-01T13:03:15.315Z,10.21
2018-05-01T13:05:42.762Z,10.23
2018-05-01T13:08:10.164Z,10.26
2018-05-01T13:10:37.581Z,10.26
2018-05-01T13:13:04.998Z,10.25
2018-05-01T13:15:32.412Z,10.23
2018-05-01T13:17:59.825Z,10.27
2018-05-01T13:20:27.239Z,10.31
2018-05-01T13:22:54.644Z,10.34
2018-05-01T13:25:22.051Z,10.33
2018-05-01T13:27:49.466Z,10.35
2018-05-01T13:30:16.882Z,10.41
2018-05-01T13:32:44.284Z,10.50
2018-05-01T13:35:11.701Z,10.60
2018-05-01T13:37:39.107Z,10.70
2018-05-01T13:40:06.516Z,10.72
2018-05-01T13:42:33.928Z,10.73
2018-05-01T13:45:01.341Z,10.71
2018-05-01T13:47:28.743Z,10.67
2018-05-01T13:49:56.159Z,10.58
2018-05-01T13:52:23.572Z,10.53
2018-05-01T13:54:50.981Z,10.48
2018-05-01T13:57:18.452Z,10.35
2018-05-01T13:59:45.811Z,10.23
2018-05-01T14:02:13.212Z,10.12
2018-05-01T14:04:40.633Z,10.07
2018-05-01T14:07:08.040Z,10.03
2018-05-01T14:09:35.459Z,10.03
2018-05-01T14:12:02.911Z,10.05
2018-05-01T14:14:30.316Z,10.03
2018-05-01T14:16:57.728Z,10.08
2018-05-01T14:19:25.172Z,10.07
2018-05-01T14:21:52.572Z,10.08
2018-05-01T14:24:19.980Z,10.13
2018-05-01T14:26:47.392Z,10.14
2018-05-01T14:29:14.801Z,10.16
2018-05-01T14:31:42.216Z,10.12
2018-05-01T14:34:09.634Z,10.08
2018-05-01T14:36:37.045Z,10.04
2018-05-01T14:39:04.472Z,10.04
2018-05-01T14:41:31.892Z,10.05
2018-05-01T14:43:59.296Z,10.06
2018-05-01T14:46:26.713Z,10.06
2018-05-01T14:48:54.123Z,10.04
2018-05-01T14:51:21.523Z,9.99
2018-05-01T14:53:48.924Z,9.95
2018-05-01T14:56:16.335Z,9.91
2018-05-01T14:58:43.744Z,9.92
2018-05-01T15:01:11.152Z,9.96
2018-05-01T15:03:38.565Z,10.02
2018-05-01T15:06:05.984Z,10.02
2018-05-01T15:08:33.389Z,10.00
2018-05-01T15:11:00.803Z,9.94
2018-05-01T15:13:28.202Z,9.88
2018-05-01T15:15:55.608Z,9.82
2018-05-01T15:18:23.022Z,9.78
2018-05-01T15:20:50.439Z,9.76
2018-05-01T15:23:17.832Z,9.75
2018-05-01T15:25:45.240Z,9.75
2018-05-01T15:28:12.641Z,9.78
2018-05-01T15:30:40.051Z,9.83
2018-05-01T15:33:07.448Z,9.91
2018-05-01T15:35:34.860Z,9.96
2018-05-01T15:38:02.268Z,10.01
2018-05-01T15:40:29.672Z,10.03
2018-05-01T15:42:57.081Z,10.13
2018-05-01T15:45:24.500Z,10.19
2018-05-01T15:47:51.908Z,10.25
2018-05-01T15:50:19.325Z,10.27
2018-05-01T15:52:46.727Z,10.31
2018-05-01T15:55:14.162Z,10.35
2018-05-01T15:57:41.565Z,10.38
2018-05-01T16:00:08.968Z,10.41
2018-05-01T16:02:36.381Z,10.46
2018-05-01T16:05:03.793Z,10.48
2018-05-01T16:07:31.205Z,10.46
2018-05-01T16:09:58.623Z,10.46
2018-05-01T16:12:26.036Z,10.48
2018-05-01T16:14:53.455Z,10.55
2018-05-01T16:17:20.905Z,10.58
2018-05-01T16:19:48.310Z,10.61
2018-05-01T16:22:15.734Z,10.64
2018-05-01T16:24:43.139Z,10.65
2018-05-01T16:27:10.558Z,10.64
2018-05-01T16:29:37.961Z,10.63
2018-05-01T16:32:05.376Z,10.63
2018-05-01T16:34:32.785Z,10.64
2018-05-01T16:37:00.201Z,10.66
2018-05-01T16:39:27.609Z,10.67
2018-05-01T16:41:55.046Z,10.68
2018-05-01T16:44:22.452Z,10.68
2018-05-01T16:46:49.863Z,10.70
2018-05-01T16:49:17.270Z,10.73
2018-05-01T16:51:44.696Z,10.73
2018-05-01T16:54:12.100Z,10.73
2018-05-01T16:56:39.523Z,10.74
2018-05-01T16:59:06.921Z,10.72
2018-05-01T17:01:34.343Z,10.73
2018-05-01T17:04:01.757Z,10.81
2018-05-01T17:06:29.168Z,10.88
2018-05-01T17:08:56.567Z,10.91
2018-05-01T17:11:23.987Z,10.95
2018-05-01T17:13:51.396Z,10.97
2018-05-01T17:16:18.807Z,10.99
2018-05-01T17:18:46.230Z,11.02
2018-05-01T17:21:13.646Z,11.06
2018-05-01T17:23:41.060Z,11.08
2018-05-01T17:26:08.476Z,11.10
2018-05-01T17:28:35.883Z,11.16
2018-05-01T17:31:03.317Z,11.21
2018-05-01T17:33:30.720Z,11.25
2018-05-01T17:35:58.137Z,11.29
2018-05-01T17:38:25.541Z,11.32
2018-05-01T17:40:53.015Z,11.31
2018-05-01T17:43:20.372Z,11.31
2018-05-01T17:45:47.779Z,11.31
2018-05-01T17:48:15.183Z,11.32
2018-05-01T17:50:42.589Z,11.35
2018-05-01T17:53:10.003Z,11.39
2018-05-01T17:55:37.404Z,11.45
2018-05-01T17:58:04.829Z,11.51
2018-05-01T18:00:32.231Z,11.56
2018-05-01T18:02:59.648Z,11.59
2018-05-01T18:05:27.049Z,11.57
2018-05-01T18:07:54.463Z,11.58
2018-05-01T18:10:21.880Z,11.56
2018-05-01T18:12:49.289Z,11.53
2018-05-01T18:15:16.697Z,11.47
2018-05-01T18:17:44.112Z,11.44
2018-05-01T18:20:11.533Z,11.38
2018-05-01T18:22:38.948Z,11.33
2018-05-01T18:25:06.352Z,11.31
2018-05-01T18:27:33.769Z,11.28
2018-05-01T18:30:01.172Z,11.25
2018-05-01T18:32:28.601Z,11.22
2018-05-01T18:34:55.997Z,11.19
2018-05-01T18:37:23.412Z,11.16
2018-05-01T18:39:50.825Z,11.11
2018-05-01T18:42:18.231Z,11.07
2018-05-01T18:44:45.640Z,11.06
2018-05-01T18:47:13.051Z,11.03
2018-05-01T18:49:40.462Z,11.02
2018-05-01T18:52:07.881Z,10.99
2018-05-01T18:54:35.288Z,10.97
2018-05-01T18:57:02.705Z,10.97
2018-05-01T18:59:30.113Z,10.97
2018-05-01T19:01:57.542Z,10.99
2018-05-01T19:04:25.040Z,11.01
2018-05-01T19:06:52.352Z,10.98
2018-05-01T19:09:19.772Z,10.95
2018-05-01T19:11:47.255Z,10.92
2018-05-01T19:14:14.588Z,10.90
2018-05-01T19:16:41.993Z,10.88
2018-05-01T19:19:09.426Z,10.90
2018-05-01T19:21:36.821Z,10.92
2018-05-01T19:24:04.258Z,10.91
2018-05-01T19:26:31.661Z,10.91
2018-05-01T19:28:59.077Z,10.86
2018-05-01T19:31:26.485Z,10.85
2018-05-01T19:33:53.904Z,10.82
2018-05-01T19:36:21.331Z,10.78
2018-05-01T19:38:48.737Z,10.68
2018-05-01T19:41:16.175Z,10.59
2018-05-01T19:43:43.593Z,10.52
2018-05-01T19:46:11.009Z,10.47
2018-05-01T19:48:38.443Z,10.43
2018-05-01T19:51:05.867Z,10.42
2018-05-01T19:53:33.270Z,10.41
2018-05-01T19:56:00.675Z,10.36
2018-05-01T19:58:28.092Z,10.34
2018-05-01T20:00:55.508Z,10.34
2018-05-01T20:03:22.957Z,10.36
2018-05-01T20:05:50.351Z,10.37
2018-05-01T20:08:17.733Z,10.35
2018-05-01T20:10:45.140Z,10.34
2018-05-01T20:13:12.552Z,10.29
2018-05-01T20:15:39.960Z,10.22
2018-05-01T20:18:07.368Z,10.14
2018-05-01T20:20:34.780Z,10.09
2018-05-01T20:23:02.201Z,10.03
2018-05-01T20:25:29.597Z,9.94
2018-05-01T20:27:57.008Z,9.86
2018-05-01T20:30:24.568Z,9.78
2018-05-01T20:32:51.832Z,9.71
2018-05-01T20:35:19.233Z,9.62
2018-05-01T20:37:46.641Z,9.57
2018-05-01T20:40:14.040Z,9.50
2018-05-01T20:42:41.439Z,9.45
2018-05-01T20:45:08.843Z,9.37
2018-05-01T20:47:36.261Z,9.30
2018-05-01T20:50:03.667Z,9.23
2018-05-01T20:52:31.068Z,9.14
2018-05-01T20:54:58.475Z,9.08
2018-05-01T20:57:25.877Z,9.02
2018-05-01T20:59:53.284Z,8.97
2018-05-01T21:02:20.722Z,8.92
2018-05-01T21:04:48.176Z,8.88
2018-05-01T21:07:15.576Z,8.83
2018-05-01T21:09:42.985Z,8.78
2018-05-01T21:12:10.389Z,8.75
2018-05-01T21:14:37.794Z,8.69
2018-05-01T21:17:05.192Z,8.63
2018-05-01T21:19:32.608Z,8.63
2018-05-01T21:22:00.050Z,8.66
2018-05-01T21:24:27.469Z,8.64
2018-05-01T21:26:54.869Z,8.68
2018-05-01T21:29:22.286Z,8.69
2018-05-01T21:31:49.683Z,8.72
2018-05-01T21:34:17.084Z,8.77
2018-05-01T21:36:44.488Z,8.82
2018-05-01T21:39:11.900Z,8.84
2018-05-01T21:41:39.300Z,8.84
2018-05-01T21:44:06.712Z,8.86
2018-05-01T21:46:34.113Z,8.89
2018-05-01T21:49:01.528Z,8.91
2018-05-01T21:51:28.932Z,8.90
2018-05-01T21:53:56.344Z,8.93
2018-05-01T21:56:23.739Z,8.94
2018-05-01T21:58:51.163Z,8.98
2018-05-01T22:01:18.562Z,8.95
2018-05-01T22:03:45.988Z,8.94
2018-05-01T22:06:13.437Z,8.88
2018-05-01T22:08:40.852Z,8.89
2018-05-01T22:11:08.253Z,8.88
2018-05-01T22:13:35.664Z,8.90
2018-05-01T22:16:03.069Z,8.92
2018-05-01T22:18:30.474Z,8.90
2018-05-01T22:20:57.901Z,8.88
2018-05-01T22:23:25.307Z,8.85
2018-05-01T22:25:52.878Z,8.85
2018-05-01T22:28:20.276Z,8.88
2018-05-01T22:30:47.686Z,8.91
2018-05-01T22:33:15.098Z,8.93
2018-05-01T22:35:42.497Z,8.93
2018-05-01T22:38:09.913Z,8.95
2018-05-01T22:40:37.353Z,8.98
2018-05-01T22:43:04.723Z,9.00
2018-05-01T22:45:32.133Z,9.01
2018-05-01T22:47:59.533Z,8.99
2018-05-01T22:50:26.945Z,8.98
2018-05-01T22:52:54.344Z,8.97
2018-05-01T22:55:21.756Z,8.96
2018-05-01T22:57:49.160Z,8.93
2018-05-01T23:00:16.571Z,8.86
2018-05-01T23:02:43.978Z,8.82
2018-05-01T23:05:11.392Z,8.81
2018-05-01T23:07:38.797Z,8.79
2018-05-01T23:10:06.208Z,8.74
2018-05-01T23:12:33.612Z,8.69
2018-05-01T23:15:01.030Z,8.66
2018-05-01T23:17:28.428Z,8.64
2018-05-01T23:19:55.841Z,8.62
2018-05-01T23:22:23.244Z,8.59
2018-05-01T23:24:50.656Z,8.58
2018-05-01T23:27:18.057Z,8.54
2018-05-01T23:29:45.472Z,8.50
2018-05-01T23:32:12.869Z,8.46
2018-05-01T23:34:40.280Z,8.43
2018-05-01T23:37:07.680Z,8.37
2018-05-01T23:39:35.097Z,8.31
2018-05-01T23:42:02.496Z,8.25
2018-05-01T23:44:29.899Z,8.17
2018-05-01T23:46:57.308Z,8.11
2018-05-01T23:49:24.740Z,8.05
2018-05-01T23:51:52.132Z,7.99
2018-05-01T23:54:19.562Z,7.92
2018-05-01T23:56:46.964Z,7.88
2018-05-01T23:59:14.364Z,7.83
